map of LIRU home
LIRU - Airport
Location
City:  Rome, Lazio, Italy
Near (Alt.):Roma
Name:Urbe
Old (Alt.):City, M Moris
ICAO:LIRU

Details
Type:Airport (Aerodrome, Airfield)
Use:International (customs port of entry)
Latitude:4157'07"N (41.951946)
Longitude:1229'56"E (12.498889)
Datum:WGS 1984
Elevation:55 ft (17 m)
Variation:3.31E (WMM2015v2 magnetic declination)
0.13 annual change
Runways:1
Longest:3543 × 98 ft (1080 × 30 m), paved

Time
Time Zone:UTC+1 (DST+2)
Local Time:

Weather
METAR:LIRU 041350Z 01013KT CAVOK 15/04 Q1015

Related Locations
Nearby:
Farthest:CHT: 11968 mi / 19261 km
Waitangi [Tuuta], CIT, NZ

Find:

   beyond  
but within

Other Information
Maps:
NOTAMs:
Links:
Sources:

  
  • flag of Italy
  • flag of Lazio
  • flag of Rome
  

Sectional Chart

Flight Planning
at skyvector.com

Satellite Image

Google Maps Satellite view

 

Copyright © 2004-2019 Karl L. Swartz. All rights reserved.
The Great Circle Mapper name and logo are trademarks of the Great Circle Mapper.
All other trademarks mentioned herein belong to their respective owners.
Please see credits for attibutions and further copyright information.

  Follow gcmap on Facebook Follow gcmap on Twitter GCmap on LinkedIn

hCard Microformat

Geo Microformat